Time;durP1;ratioP1;P1;durP2;ratioP2;P2;SDS_P1;SDS_P2;PMS_P1;PMS_P2;Temp;Humidity;BMP_temperature;BMP_pressure;BME280_temperature;BME280_humidity;BME280_pressure;Samples;Min_cycle;Max_cycle;Signal;HPM_P1;HPM_P2
2023/10/13 00:00:25;;;;;;;27.33;16.25;;;;;;;15.76;100.00;101071.84;1235264;24;20234;-91
2023/10/13 00:01:03;;;;;;;21.35;16.50;;;;;;;15.77;100.00;101071.59;1241038;23;20019;-91
2023/10/13 00:01:35;;;;;;;21.80;17.27;;;;;;;15.81;100.00;101084.53;1243433;23;20528;-90
2023/10/13 00:02:07;;;;;;;24.77;17.73;;;;;;;15.76;100.00;101078.03;1220630;24;20022;-91
2023/10/13 00:02:39;;;;;;;27.60;16.73;;;;;;;15.82;100.00;101070.84;1233837;24;20033;-90
2023/10/13 00:03:18;;;;;;;24.88;17.17;;;;;;;15.79;100.00;101073.22;1231563;24;20013;-91
2023/10/13 00:03:53;;;;;;;22.85;16.77;;;;;;;15.79;100.00;101081.28;1229547;24;20062;-90
2023/10/13 00:04:25;;;;;;;25.25;16.92;;;;;;;15.75;100.00;101081.78;1235548;24;20016;-91
2023/10/13 00:04:57;;;;;;;22.45;15.68;;;;;;;15.76;100.00;101083.41;1240469;23;20111;-91
2023/10/13 00:05:30;;;;;;;31.00;17.52;;;;;;;15.73;100.00;101080.38;1235443;24;20016;-91
2023/10/13 00:06:03;;;;;;;23.45;15.60;;;;;;;15.74;100.00;101074.78;1243291;23;20019;-90
2023/10/13 00:06:34;;;;;;;20.45;15.60;;;;;;;15.75;100.00;101080.94;1229101;24;20043;-91
2023/10/13 00:07:09;;;;;;;28.85;16.45;;;;;;;15.79;100.00;101070.53;1238480;23;20105;-91
2023/10/13 00:07:41;;;;;;;22.48;18.15;;;;;;;15.75;100.00;101081.78;1243191;23;20016;-91
2023/10/13 00:08:13;;;;;;;27.17;17.70;;;;;;;15.75;100.00;101079.09;1229711;24;20021;-90
2023/10/13 00:08:45;;;;;;;24.40;17.33;;;;;;;15.76;100.00;101078.03;1230871;24;20181;-92
2023/10/13 00:09:19;;;;;;;26.75;16.90;;;;;;;15.78;100.00;101075.09;1240698;23;20016;-92
2023/10/13 00:09:51;;;;;;;33.55;17.80;;;;;;;15.77;100.00;101066.22;1244533;23;20020;-91
2023/10/13 00:10:25;;;;;;;30.52;17.52;;;;;;;15.76;100.00;101064.59;1242083;23;20468;-90
2023/10/13 00:11:00;;;;;;;25.05;17.98;;;;;;;15.80;100.00;101072.97;1246764;23;20074;-91
2023/10/13 00:11:31;;;;;;;20.67;14.93;;;;;;;15.75;100.00;101062.97;1247073;23;20030;-90
2023/10/13 00:12:13;;;;;;;26.25;17.58;;;;;;;15.74;100.00;101066.72;1249250;23;20348;-91
2023/10/13 00:12:49;;;;;;;22.23;17.08;;;;;;;15.79;100.00;101070.53;1248925;23;20025;-91
2023/10/13 00:13:21;;;;;;;21.52;17.67;;;;;;;15.76;100.00;101067.28;1246656;23;20488;-91
2023/10/13 00:13:54;;;;;;;26.38;17.70;;;;;;;15.75;100.00;101076.41;1242954;23;20012;-91
2023/10/13 00:14:34;;;;;;;29.88;17.75;;;;;;;15.77;100.00;101070.78;1240787;23;20398;-91
2023/10/13 00:15:13;;;;;;;28.00;16.73;;;;;;;15.79;100.00;101059.78;1234462;23;20020;-90
2023/10/13 00:16:28;;;;;;;20.92;16.05;;;;;;;15.84;100.00;101062.53;1237235;24;20012;-90
2023/10/13 00:17:04;;;;;;;26.48;16.70;;;;;;;15.80;100.00;101066.78;1246755;23;20026;-89
2023/10/13 00:17:38;;;;;;;29.70;16.10;;;;;;;15.79;100.00;101059.78;1237097;23;20119;-90
2023/10/13 00:18:13;;;;;;;24.17;18.48;;;;;;;15.80;100.00;101056.84;1229382;24;20016;-90
2023/10/13 00:18:45;;;;;;;24.13;16.08;;;;;;;15.79;100.00;101062.47;1234268;24;20040;-90
2023/10/13 00:19:17;;;;;;;25.45;17.27;;;;;;;15.76;100.00;101061.91;1231882;24;20046;-90
2023/10/13 00:19:52;;;;;;;23.48;17.58;;;;;;;15.80;100.00;101054.16;1236195;23;20584;-90
2023/10/13 00:20:35;;;;;;;25.15;17.30;;;;;;;15.80;100.00;101056.84;1237478;23;20016;-89
2023/10/13 00:21:15;;;;;;;22.98;15.18;;;;;;;15.80;100.00;101056.03;1237205;24;20023;-90
2023/10/13 00:21:47;;;;;;;23.75;17.92;;;;;;;15.80;100.00;101056.03;1241741;23;20024;-90
2023/10/13 00:22:19;;;;;;;22.98;15.10;;;;;;;15.79;100.00;101057.09;1234795;24;20077;-91
2023/10/13 00:22:51;;;;;;;26.38;16.70;;;;;;;15.78;100.00;101058.97;1235352;23;20391;-90
2023/10/13 00:23:26;;;;;;;31.35;18.05;;;;;;;15.77;100.00;101052.78;1237525;24;20016;-90
2023/10/13 00:24:01;;;;;;;29.15;18.00;;;;;;;15.77;100.00;101055.47;1230373;24;20023;-90
2023/10/13 00:24:39;;;;;;;26.23;16.95;;;;;;;15.83;100.00;101055.53;1233446;24;20450;-91
2023/10/13 00:25:19;;;;;;;28.10;18.17;;;;;;;15.80;100.00;101064.91;1234742;24;20021;-90
2023/10/13 00:25:56;;;;;;;24.13;16.02;;;;;;;15.86;100.00;101052.38;1239586;23;20487;-90
2023/10/13 00:26:30;;;;;;;25.95;17.15;;;;;;;15.82;100.00;101056.59;1237153;23;20016;-90
2023/10/13 00:27:04;;;;;;;23.13;17.52;;;;;;;15.82;100.00;101048.56;1241208;23;20388;-91
2023/10/13 00:27:41;;;;;;;23.42;17.38;;;;;;;15.82;100.00;101051.22;1246372;23;20299;-90
2023/10/13 00:28:22;;;;;;;26.95;17.50;;;;;;;15.88;100.00;101052.94;1241352;23;20078;-90
2023/10/13 00:29:39;;;;;;;29.38;18.67;;;;;;;15.86;100.00;101055.06;1246780;23;20190;-91
2023/10/13 00:30:53;;;;;;;31.50;18.70;;;;;;;15.88;100.00;101052.94;1242744;23;20042;-91
2023/10/13 00:31:36;;;;;;;31.08;17.88;;;;;;;15.85;100.00;101048.06;1241201;23;20472;-90
2023/10/13 00:32:11;;;;;;;26.92;18.80;;;;;;;15.85;100.00;101048.06;1241741;23;20015;-90
2023/10/13 00:32:45;;;;;;;27.48;17.98;;;;;;;15.86;100.00;101055.06;1235201;24;20027;-90
2023/10/13 00:33:19;;;;;;;33.55;19.40;;;;;;;15.85;100.00;101042.69;1223779;24;20707;-90
2023/10/13 00:33:55;;;;;;;22.73;17.17;;;;;;;15.87;100.00;101045.94;1235437;24;20027;-90
2023/10/13 00:34:32;;;;;;;23.73;17.23;;;;;;;15.87;100.00;101045.94;1241893;23;20023;-92
2023/10/13 00:35:05;;;;;;;32.58;19.02;;;;;;;15.89;100.00;101050.03;1234420;23;20048;-90
2023/10/13 00:35:37;;;;;;;24.17;18.27;;;;;;;15.91;100.00;101047.91;1229671;24;20017;-92
2023/10/13 00:36:17;;;;;;;22.75;18.00;;;;;;;15.91;100.00;101047.09;1235312;24;20203;-91
2023/10/13 00:36:49;;;;;;;29.88;18.30;;;;;;;15.92;100.00;101054.09;1235217;23;20326;-90
2023/10/13 00:37:27;;;;;;;28.40;19.10;;;;;;;15.92;100.00;101048.72;1223729;24;20050;-91
2023/10/13 00:38:04;;;;;;;29.15;17.63;;;;;;;15.95;100.00;101048.22;1235117;23;20083;-90
2023/10/13 00:38:36;;;;;;;29.73;19.08;;;;;;;15.90;100.00;101048.16;1241403;23;20023;-91
2023/10/13 00:39:08;;;;;;;34.88;19.02;;;;;;;15.91;100.00;101052.47;1246795;23;20019;-91
2023/10/13 00:39:44;;;;;;;27.17;17.95;;;;;;;15.91;100.00;101049.78;1253052;23;20027;-92
2023/10/13 00:40:41;;;;;;;36.17;20.17;;;;;;;15.90;100.00;101045.47;1243758;23;20088;-91
2023/10/13 00:41:15;;;;;;;28.90;16.25;;;;;;;15.88;100.00;101047.56;1240825;23;20385;-90
2023/10/13 00:41:56;;;;;;;26.52;17.58;;;;;;;15.92;100.00;101054.09;1252803;23;20030;-90
2023/10/13 00:42:47;;;;;;;25.75;16.95;;;;;;;15.92;100.00;101037.97;1248869;23;20624;-91
2023/10/13 00:44:04;;;;;;;29.45;17.20;;;;;;;15.89;100.00;101043.84;1241603;23;20535;-91
2023/10/13 00:44:41;;;;;;;24.33;17.10;;;;;;;15.88;100.00;101042.19;1242107;23;20031;-91
2023/10/13 00:45:17;;;;;;;30.58;17.63;;;;;;;15.89;100.00;101044.66;1241433;23;20061;-91
2023/10/13 00:45:55;;;;;;;24.50;18.17;;;;;;;15.86;100.00;101044.31;1241703;23;20411;-91
2023/10/13 00:46:33;;;;;;;27.08;16.60;;;;;;;15.88;100.00;101047.56;1252712;23;20015;-91
2023/10/13 00:47:07;;;;;;;27.33;17.00;;;;;;;15.86;100.00;101044.31;1235389;23;20016;-91
2023/10/13 00:47:39;;;;;;;26.70;17.55;;;;;;;15.87;100.00;101052.13;1234885;23;20363;-91
2023/10/13 00:48:12;;;;;;;26.48;18.10;;;;;;;15.92;100.00;101048.72;1237180;24;20075;-90
2023/10/13 00:48:54;;;;;;;26.95;16.40;;;;;;;15.92;100.00;101049.53;1240778;23;20031;-90
2023/10/13 00:49:26;;;;;;;25.83;17.13;;;;;;;15.94;100.00;101051.97;1241092;23;20016;-91
2023/10/13 00:49:58;;;;;;;24.73;16.20;;;;;;;15.93;100.00;101045.78;1234824;23;20141;-91
2023/10/13 00:50:30;;;;;;;22.25;15.60;;;;;;;15.89;100.00;101039.28;1235069;23;20031;-91
2023/10/13 00:51:06;;;;;;;25.05;17.50;;;;;;;15.93;100.00;101042.28;1237158;24;20027;-91
2023/10/13 00:51:40;;;;;;;21.92;15.82;;;;;;;15.94;100.00;101030.47;1229406;24;20108;-91
2023/10/13 00:52:15;;;;;;;33.45;16.88;;;;;;;15.93;100.00;101040.41;1237354;24;20016;-91
2023/10/13 00:52:51;;;;;;;25.13;17.77;;;;;;;15.88;100.00;101045.69;1241125;23;20028;-91
2023/10/13 00:53:25;;;;;;;22.17;16.75;;;;;;;15.92;100.00;101037.97;1240969;23;20457;-91
2023/10/13 00:53:56;;;;;;;24.40;16.75;;;;;;;15.89;100.00;101038.47;1235226;23;20016;-91
2023/10/13 00:54:28;;;;;;;25.25;16.02;;;;;;;15.86;100.00;101039.75;1231633;24;20123;-91
2023/10/13 00:55:00;;;;;;;29.08;17.13;;;;;;;15.91;100.00;101041.72;1246853;23;20026;-91
2023/10/13 00:55:33;;;;;;;24.48;15.35;;;;;;;15.89;100.00;101038.47;1249259;23;20018;-91
2023/10/13 00:56:18;;;;;;;31.40;16.95;;;;;;;15.90;100.00;101040.09;1246659;23;20023;-90
2023/10/13 00:56:57;;;;;;;26.08;15.18;;;;;;;15.92;100.00;101037.97;1245572;23;20077;-91
2023/10/13 00:57:32;;;;;;;27.10;15.38;;;;;;;15.93;100.00;101036.91;1241113;23;20019;-91
2023/10/13 00:58:04;;;;;;;24.70;15.65;;;;;;;15.93;100.00;101034.22;1240763;23;20405;-90
2023/10/13 00:58:38;;;;;;;23.63;15.10;;;;;;;15.91;100.00;101039.03;1237057;24;20016;-91
2023/10/13 00:59:13;;;;;;;29.52;16.80;;;;;;;15.91;100.00;101034.47;1237479;24;20023;-90
2023/10/13 00:59:47;;;;;;;26.58;17.05;;;;;;;15.89;100.00;101035.78;1240815;23;20114;-91
2023/10/13 01:00:19;;;;;;;20.17;14.07;;;;;;;15.87;100.00;101032.50;1235159;24;20377;-90
2023/10/13 01:00:56;;;;;;;24.25;15.57;;;;;;;15.90;100.00;101029.34;1231297;24;20024;-90
2023/10/13 01:01:34;;;;;;;24.05;15.25;;;;;;;15.91;100.00;101033.66;1240994;23;20016;-90
2023/10/13 01:02:37;;;;;;;27.08;17.13;;;;;;;15.93;100.00;101031.53;1241143;23;20055;-91
2023/10/13 01:03:06;;;;;;;24.52;14.18;;;;;;;15.94;100.00;101030.47;1243777;23;20569;-90
2023/10/13 01:03:38;;;;;;;24.10;16.05;;;;;;;15.88;100.00;101020.69;1247555;23;20365;-91
2023/10/13 01:04:12;;;;;;;23.42;14.18;;;;;;;15.90;100.00;101023.97;1241142;23;20106;-90
2023/10/13 01:04:46;;;;;;;21.83;14.00;;;;;;;15.86;100.00;101022.81;1243218;23;20365;-91
2023/10/13 01:05:19;;;;;;;20.30;15.63;;;;;;;15.87;100.00;101024.44;1240881;23;20024;-92
2023/10/13 01:05:54;;;;;;;24.60;15.32;;;;;;;15.89;100.00;101016.97;1240887;23;20019;-91
2023/10/13 01:06:28;;;;;;;23.00;16.30;;;;;;;15.88;100.00;101023.38;1243472;23;20019;-91
2023/10/13 01:07:00;;;;;;;19.65;14.88;;;;;;;15.87;100.00;101016.38;1242893;23;20015;-91
2023/10/13 01:07:31;;;;;;;19.27;15.52;;;;;;;15.83;100.00;101018.75;1242390;23;20042;-90
2023/10/13 01:08:03;;;;;;;20.52;15.18;;;;;;;15.81;100.00;101026.25;1229956;23;20020;-91
2023/10/13 01:08:37;;;;;;;28.67;14.50;;;;;;;15.80;100.00;101018.44;1235564;24;20360;-91
2023/10/13 01:09:16;;;;;;;25.05;15.95;;;;;;;15.87;100.00;101019.06;1234910;24;20568;-90
2023/10/13 01:09:48;;;;;;;23.73;15.23;;;;;;;15.84;100.00;101025.75;1243173;23;20124;-91
2023/10/13 01:10:20;;;;;;;19.77;14.70;;;;;;;15.83;100.00;101017.94;1230001;23;20032;-91
2023/10/13 01:10:53;;;;;;;23.55;14.25;;;;;;;15.85;100.00;101018.50;1229533;24;20020;-91
2023/10/13 01:11:27;;;;;;;24.98;15.40;;;;;;;15.81;100.00;101015.50;1240507;23;20024;-91
2023/10/13 01:12:00;;;;;;;24.30;15.32;;;;;;;15.82;100.00;101022.50;1240948;23;20226;-91
2023/10/13 01:12:32;;;;;;;24.25;15.55;;;;;;;15.89;100.00;101019.66;1234937;23;20037;-90
2023/10/13 01:13:04;;;;;;;23.83;14.90;;;;;;;15.87;100.00;101024.44;1235293;24;20027;-91
2023/10/13 01:13:36;;;;;;;22.13;15.55;;;;;;;15.85;100.00;101015.81;1243213;23;20022;-91
2023/10/13 01:14:11;;;;;;;18.65;13.80;;;;;;;15.84;100.00;101023.06;1240969;23;20099;-91
2023/10/13 01:14:44;;;;;;;19.48;14.43;;;;;;;15.82;100.00;101016.31;1242892;23;20054;-91
2023/10/13 01:15:20;;;;;;;24.23;14.85;;;;;;;15.85;100.00;101015.81;1241246;23;20020;-90
2023/10/13 01:15:52;;;;;;;20.02;13.88;;;;;;;15.86;100.00;101014.75;1243053;23;20016;-90
2023/10/13 01:16:26;;;;;;;25.10;14.70;;;;;;;15.88;100.00;101012.63;1241426;23;20019;-91
2023/10/13 01:17:01;;;;;;;18.75;14.25;;;;;;;15.86;100.00;101009.38;1229760;24;20016;-90
2023/10/13 01:17:33;;;;;;;22.20;14.25;;;;;;;15.84;100.00;101014.19;1240460;23;20031;-91
2023/10/13 01:18:12;;;;;;;23.10;14.25;;;;;;;15.96;100.00;101009.56;1241228;23;20449;-89
2023/10/13 01:18:47;;;;;;;23.85;13.90;;;;;;;15.85;100.00;101013.13;1242828;23;20111;-92
2023/10/13 01:19:24;;;;;;;22.45;14.93;;;;;;;15.87;100.00;101017.19;1247186;23;20057;-90
2023/10/13 01:19:58;;;;;;;24.13;15.38;;;;;;;15.85;100.00;101011.25;1240258;23;20026;-91
2023/10/13 01:20:30;;;;;;;23.15;14.15;;;;;;;15.88;100.00;101015.31;1240682;23;20440;-91
2023/10/13 01:21:04;;;;;;;20.15;14.68;;;;;;;15.95;100.00;101016.00;1243320;23;20016;-90
2023/10/13 01:21:36;;;;;;;21.98;14.65;;;;;;;15.91;100.00;101006.81;1244433;23;20019;-91
2023/10/13 01:22:09;;;;;;;19.70;14.75;;;;;;;15.85;100.00;101011.25;1234983;23;20385;-91
2023/10/13 01:22:41;;;;;;;23.85;14.32;;;;;;;15.83;100.00;101008.00;1241169;23;20023;-91
2023/10/13 01:23:18;;;;;;;18.83;13.68;;;;;;;15.86;100.00;101012.06;1237242;24;20091;-90
2023/10/13 01:23:51;;;;;;;19.60;13.90;;;;;;;15.91;100.00;101009.47;1237579;24;20020;-91
2023/10/13 01:24:24;;;;;;;25.23;14.85;;;;;;;15.88;100.00;101009.94;1241028;23;20019;-91
2023/10/13 01:25:05;;;;;;;20.42;13.85;;;;;;;15.84;100.00;101006.13;1246735;23;20147;-90
2023/10/13 01:25:36;;;;;;;26.98;15.48;;;;;;;15.84;100.00;101003.44;1241373;23;20356;-90
2023/10/13 01:26:09;;;;;;;19.50;13.02;;;;;;;15.83;100.00;101007.19;1235020;23;20116;-91
2023/10/13 01:26:42;;;;;;;21.30;15.52;;;;;;;15.84;100.00;101000.75;1235217;24;20164;-91
2023/10/13 01:27:17;;;;;;;23.52;15.30;;;;;;;15.89;100.00;101001.69;1243126;23;20020;-91
2023/10/13 01:27:51;;;;;;;21.35;15.82;;;;;;;15.83;100.00;101005.31;1234723;24;20043;-91
2023/10/13 01:28:24;;;;;;;19.83;13.40;;;;;;;15.83;100.00;100996.44;1243521;23;20116;-91
2023/10/13 01:28:58;;;;;;;23.85;14.27;;;;;;;15.89;100.00;101001.69;1245005;23;20011;-91
2023/10/13 01:29:30;;;;;;;26.65;17.10;;;;;;;15.89;100.00;101000.88;1242651;23;20020;-90
2023/10/13 01:30:22;;;;;;;19.17;13.10;;;;;;;15.87;100.00;100997.59;1241227;23;20338;-91
2023/10/13 01:30:54;;;;;;;27.83;15.52;;;;;;;15.87;100.00;100995.72;1243341;23;20075;-91
2023/10/13 01:31:30;;;;;;;21.33;14.45;;;;;;;15.85;100.00;100995.16;1240804;23;20453;-90
2023/10/13 01:32:02;;;;;;;22.45;14.35;;;;;;;15.83;100.00;100993.78;1235096;23;20020;-91
2023/10/13 01:32:34;;;;;;;19.05;14.00;;;;;;;15.88;100.00;100999.22;1240825;23;20107;-91
2023/10/13 01:33:08;;;;;;;18.73;13.38;;;;;;;15.87;100.00;100995.72;1235377;24;20021;-90
2023/10/13 01:33:40;;;;;;;20.30;14.60;;;;;;;15.86;100.00;100991.41;1230757;24;20045;-91
2023/10/13 01:34:21;;;;;;;23.05;14.75;;;;;;;15.88;100.00;100988.47;1241039;23;20026;-91
2023/10/13 01:34:55;;;;;;;26.88;14.80;;;;;;;15.87;100.00;100995.72;1241099;23;20023;-91
2023/10/13 01:35:36;;;;;;;18.23;12.85;;;;;;;15.87;100.00;100992.22;1240810;23;20015;-90
2023/10/13 01:36:08;;;;;;;18.85;14.73;;;;;;;15.86;100.00;100993.28;1229633;24;20021;-90
2023/10/13 01:36:40;;;;;;;18.42;13.77;;;;;;;15.85;100.00;100988.97;1240576;23;20074;-90
2023/10/13 01:37:12;;;;;;;19.10;12.68;;;;;;;15.83;100.00;100988.41;1243343;23;20015;-91
2023/10/13 01:37:44;;;;;;;22.20;14.57;;;;;;;15.82;100.00;100986.78;1234950;24;20028;-90
2023/10/13 01:38:16;;;;;;;23.65;14.80;;;;;;;15.82;100.00;100979.53;1231352;24;20024;-91
2023/10/13 01:38:48;;;;;;;19.60;14.27;;;;;;;15.84;100.00;100982.78;1240967;23;20027;-91
2023/10/13 01:39:21;;;;;;;25.70;14.18;;;;;;;15.82;100.00;100979.53;1242959;23;20020;-91
2023/10/13 01:39:53;;;;;;;19.45;13.43;;;;;;;15.86;100.00;100986.03;1236818;24;20102;-90
2023/10/13 01:40:28;;;;;;;20.73;14.70;;;;;;;15.85;100.00;100983.59;1230711;24;20017;-91
2023/10/13 01:41:03;;;;;;;23.13;13.73;;;;;;;15.89;100.00;100984.75;1235260;24;20024;-91
2023/10/13 01:41:39;;;;;;;21.02;13.82;;;;;;;15.89;100.00;100980.19;1235058;23;20103;-90
2023/10/13 01:42:14;;;;;;;17.73;13.52;;;;;;;15.87;100.00;100978.78;1228940;24;20456;-90
2023/10/13 01:42:55;;;;;;;18.33;13.93;;;;;;;15.87;100.00;100976.09;1231478;24;20158;-90
2023/10/13 01:43:26;;;;;;;19.98;13.20;;;;;;;15.87;100.00;100976.09;1235311;24;20020;-92
2023/10/13 01:43:58;;;;;;;17.65;13.38;;;;;;;15.87;100.00;100979.59;1235266;23;20023;-91
2023/10/13 01:44:33;;;;;;;23.42;15.10;;;;;;;15.86;100.00;100977.97;1231402;24;20023;-91
2023/10/13 01:45:05;;;;;;;23.98;14.27;;;;;;;15.92;100.00;100968.13;1236328;23;20049;-91
2023/10/13 01:45:49;;;;;;;19.73;14.40;;;;;;;15.89;100.00;100972.13;1245269;23;20023;-91
2023/10/13 01:46:21;;;;;;;23.50;14.38;;;;;;;15.87;100.00;100970.72;1250781;23;20114;-91
2023/10/13 01:46:53;;;;;;;28.40;14.35;;;;;;;15.87;100.00;100970.72;1245815;23;20027;-91
2023/10/13 01:47:27;;;;;;;20.65;12.38;;;;;;;15.85;100.00;100970.16;1246509;23;20117;-91
2023/10/13 01:48:01;;;;;;;18.65;13.05;;;;;;;15.86;100.00;100963.72;1250165;23;20338;-90
2023/10/13 01:48:38;;;;;;;22.13;12.88;;;;;;;15.86;100.00;100969.91;1246800;23;20023;-90
2023/10/13 01:49:10;;;;;;;24.25;13.43;;;;;;;15.88;100.00;100957.03;1240940;23;20016;-91
2023/10/13 01:49:47;;;;;;;17.88;12.07;;;;;;;15.85;100.00;100962.09;1230990;24;20024;-91
2023/10/13 01:50:27;;;;;;;18.77;12.88;;;;;;;15.88;100.00;100951.66;1239941;23;20016;-91
2023/10/13 01:51:05;;;;;;;18.25;13.88;;;;;;;15.89;100.00;100957.88;1246900;23;20023;-91
2023/10/13 01:51:39;;;;;;;20.83;13.43;;;;;;;15.92;100.00;100952.00;1246989;23;20023;-91
2023/10/13 01:52:11;;;;;;;18.15;13.93;;;;;;;15.96;100.00;100953.94;1240731;23;20147;-91
2023/10/13 01:52:43;;;;;;;17.30;12.38;;;;;;;15.91;100.00;100950.38;1243595;23;20453;-91
2023/10/13 01:53:17;;;;;;;25.38;13.15;;;;;;;15.88;100.00;100950.84;1247636;23;20042;-91
2023/10/13 01:53:56;;;;;;;19.38;12.93;;;;;;;15.91;100.00;100947.69;1256485;23;20015;-91
2023/10/13 01:54:28;;;;;;;18.52;13.32;;;;;;;16.00;100.00;100948.88;1249265;23;20011;-91
2023/10/13 01:55:01;;;;;;;18.85;14.23;;;;;;;15.92;100.00;100941.25;1246331;23;20015;-91
2023/10/13 01:55:42;;;;;;;17.92;14.10;;;;;;;15.91;100.00;100945.00;1241397;23;20043;-91
2023/10/13 01:56:15;;;;;;;18.35;12.68;;;;;;;15.91;100.00;100947.69;1235925;24;20095;-91
2023/10/13 01:57:05;;;;;;;18.73;13.68;;;;;;;15.91;100.00;100945.00;1243255;23;20030;-91
2023/10/13 01:57:37;;;;;;;22.65;13.65;;;;;;;15.89;100.00;100947.13;1235571;24;20059;-91
2023/10/13 01:58:15;;;;;;;19.95;13.13;;;;;;;15.91;100.00;100945.81;1241298;23;20024;-91
2023/10/13 01:58:47;;;;;;;19.25;11.63;;;;;;;15.89;100.00;100947.94;1241347;23;20363;-91
2023/10/13 01:59:19;;;;;;;17.15;13.75;;;;;;;15.88;100.00;100945.47;1241395;23;20016;-91
2023/10/13 01:59:51;;;;;;;20.20;13.95;;;;;;;15.90;100.00;100943.38;1237715;24;20024;-91
2023/10/13 02:00:25;;;;;;;16.40;12.45;;;;;;;15.86;100.00;100944.91;1235422;24;20024;-91
2023/10/13 02:00:57;;;;;;;25.58;13.35;;;;;;;15.86;100.00;100942.22;1232763;24;20021;-90
2023/10/13 02:01:35;;;;;;;19.50;12.50;;;;;;;15.87;100.00;100938.47;1230164;24;20032;-91
2023/10/13 02:02:07;;;;;;;18.60;14.45;;;;;;;15.90;100.00;100938.00;1241852;23;20478;-91
2023/10/13 02:02:44;;;;;;;16.45;11.82;;;;;;;15.89;100.00;100939.88;1235447;23;20025;-91
2023/10/13 02:03:16;;;;;;;23.77;13.00;;;;;;;15.90;100.00;100935.31;1242955;23;20469;-91
2023/10/13 02:03:49;;;;;;;18.73;12.05;;;;;;;15.92;100.00;100934.00;1241308;23;20104;-91
2023/10/13 02:04:21;;;;;;;18.25;12.40;;;;;;;15.91;100.00;100934.25;1229783;24;20021;-91
2023/10/13 02:04:57;;;;;;;19.35;12.95;;;;;;;15.88;100.00;100934.72;1247406;23;20023;-91
2023/10/13 02:05:35;;;;;;;26.13;12.82;;;;;;;15.87;100.00;100930.44;1241440;23;20016;-91
2023/10/13 02:06:16;;;;;;;15.43;12.30;;;;;;;15.88;100.00;100929.38;1237490;24;20019;-91
2023/10/13 02:06:48;;;;;;;18.25;12.70;;;;;;;15.87;100.00;100928.56;1223815;24;20036;-90
2023/10/13 02:07:20;;;;;;;21.85;12.85;;;;;;;15.86;100.00;100931.50;1242033;23;20020;-90
2023/10/13 02:07:53;;;;;;;15.18;11.30;;;;;;;15.87;100.00;100927.75;1241179;23;20020;-90
2023/10/13 02:08:25;;;;;;;15.98;11.95;;;;;;;15.82;100.00;100928.50;1231600;24;20024;-91
2023/10/13 02:09:10;;;;;;;18.80;13.05;;;;;;;15.84;100.00;100920.19;1227264;24;20013;-91
2023/10/13 02:09:45;;;;;;;20.35;13.18;;;;;;;15.87;100.00;100925.06;1235639;23;20558;-91
2023/10/13 02:10:16;;;;;;;16.65;12.45;;;;;;;15.86;100.00;100926.13;1241725;23;20475;-91
2023/10/13 02:10:52;;;;;;;20.08;13.05;;;;;;;15.85;100.00;100929.88;1242936;23;20086;-91
2023/10/13 02:11:24;;;;;;;18.98;14.35;;;;;;;15.86;100.00;100928.81;1237308;23;20031;-91
2023/10/13 02:11:56;;;;;;;18.08;11.77;;;;;;;15.85;100.00;100929.88;1235572;23;20023;-91
2023/10/13 02:12:36;;;;;;;22.60;13.60;;;;;;;15.86;100.00;100923.44;1241289;23;20159;-91
2023/10/13 02:13:15;;;;;;;19.70;13.40;;;;;;;15.85;100.00;100924.50;1241341;23;20023;-91
2023/10/13 02:13:51;;;;;;;29.90;13.40;;;;;;;15.82;100.00;100925.00;1247318;23;20032;-90
2023/10/13 02:14:25;;;;;;;18.20;12.68;;;;;;;15.79;100.00;100928.19;1241346;23;20032;-90
2023/10/13 02:15:01;;;;;;;21.50;13.95;;;;;;;15.84;100.00;100917.50;1241349;23;20019;-91
2023/10/13 02:15:34;;;;;;;20.60;11.98;;;;;;;15.84;100.00;100920.19;1241342;23;20015;-90
2023/10/13 02:16:07;;;;;;;26.13;13.30;;;;;;;15.91;100.00;100915.47;1241311;23;20024;-90
2023/10/13 02:16:39;;;;;;;16.88;14.23;;;;;;;15.88;100.00;100924.00;1235534;23;20072;-91
2023/10/13 02:17:16;;;;;;;18.25;12.55;;;;;;;15.91;100.00;100918.16;1250447;23;20019;-92
2023/10/13 02:17:51;;;;;;;20.10;13.57;;;;;;;15.87;100.00;100919.69;1241007;23;20360;-91
2023/10/13 02:18:27;;;;;;;16.38;12.95;;;;;;;15.88;100.00;100918.63;1241364;23;20027;-90
2023/10/13 02:19:04;;;;;;;18.60;12.40;;;;;;;15.88;100.00;100913.25;1235678;24;20634;-91
2023/10/13 02:19:39;;;;;;;15.05;12.57;;;;;;;15.93;100.00;100916.03;1247066;23;20106;-90
2023/10/13 02:20:14;;;;;;;15.32;12.23;;;;;;;15.92;100.00;100914.41;1235844;23;20020;-90
2023/10/13 02:20:54;;;;;;;20.38;12.82;;;;;;;15.96;100.00;100910.16;1247298;23;20023;-91
2023/10/13 02:21:31;;;;;;;18.45;13.93;;;;;;;15.88;100.00;100908.69;1241320;23;20023;-90
2023/10/13 02:22:04;;;;;;;22.67;12.43;;;;;;;15.88;100.00;100911.38;1237773;24;20092;-91
2023/10/13 02:22:38;;;;;;;19.77;12.98;;;;;;;15.87;100.00;100914.31;1229847;24;20052;-91
2023/10/13 02:23:12;;;;;;;21.95;13.40;;;;;;;15.94;100.00;100904.22;1243386;23;20015;-91
2023/10/13 02:23:59;;;;;;;22.27;13.25;;;;;;;15.87;100.00;100912.44;1235180;24;20028;-90
2023/10/13 02:24:31;;;;;;;16.60;11.75;;;;;;;15.97;100.00;100909.91;1224225;24;20096;-91
2023/10/13 02:25:05;;;;;;;17.70;13.48;;;;;;;15.92;100.00;100909.03;1235607;23;20034;-91
2023/10/13 02:25:45;;;;;;;22.45;12.88;;;;;;;15.91;100.00;100908.22;1247184;23;20078;-91
2023/10/13 02:26:30;;;;;;;17.50;13.40;;;;;;;15.90;100.00;100903.09;1247251;23;20167;-90
2023/10/13 02:27:09;;;;;;;18.67;12.65;;;;;;;15.91;100.00;100907.41;1247237;23;20111;-90
2023/10/13 02:27:41;;;;;;;18.70;13.77;;;;;;;15.91;100.00;100912.78;1247307;23;20023;-89
2023/10/13 02:28:13;;;;;;;19.85;12.40;;;;;;;15.94;100.00;100906.91;1241410;23;20027;-91
2023/10/13 02:28:51;;;;;;;18.35;12.25;;;;;;;15.96;100.00;100910.16;1235458;23;20031;-91
2023/10/13 02:29:22;;;;;;;17.80;13.00;;;;;;;15.97;100.00;100907.22;1231888;24;20164;-90
2023/10/13 02:30:01;;;;;;;23.52;13.23;;;;;;;15.97;100.00;100906.41;1235072;23;20124;-90
2023/10/13 02:30:37;;;;;;;17.20;12.32;;;;;;;15.91;100.00;100905.53;1229676;24;20028;-91
2023/10/13 02:31:09;;;;;;;27.63;13.82;;;;;;;15.91;100.00;100902.03;1235423;23;20213;-90
2023/10/13 02:31:42;;;;;;;18.63;13.20;;;;;;;15.91;100.00;100896.66;1243255;23;20043;-91
2023/10/13 02:32:18;;;;;;;17.90;11.18;;;;;;;15.93;100.00;100899.91;1243522;23;20075;-91
2023/10/13 02:32:50;;;;;;;22.25;12.88;;;;;;;15.90;100.00;100905.78;1239519;23;20016;-91
2023/10/13 02:33:22;;;;;;;26.45;13.65;;;;;;;15.92;100.00;100898.28;1241105;23;20035;-90
2023/10/13 02:33:54;;;;;;;19.50;14.27;;;;;;;15.89;100.00;100898.78;1241449;23;20020;-91
2023/10/13 02:34:26;;;;;;;24.40;12.77;;;;;;;15.86;100.00;100900.06;1229938;24;20076;-90
2023/10/13 02:35:05;;;;;;;18.45;12.43;;;;;;;15.87;100.00;100895.50;1241598;23;20042;-91
2023/10/13 02:35:41;;;;;;;18.70;12.45;;;;;;;15.90;100.00;100900.41;1229726;24;20028;-91
2023/10/13 02:36:13;;;;;;;19.50;11.77;;;;;;;15.94;100.00;100896.97;1235281;24;20043;-91
2023/10/13 02:36:48;;;;;;;20.42;12.98;;;;;;;15.91;100.00;100885.91;1243147;23;20019;-91
2023/10/13 02:37:20;;;;;;;17.80;12.70;;;;;;;15.91;100.00;100897.47;1235592;23;20404;-90
2023/10/13 02:37:55;;;;;;;19.90;12.50;;;;;;;15.88;100.00;100897.13;1232360;24;20017;-90
2023/10/13 02:38:32;;;;;;;17.85;12.85;;;;;;;15.87;100.00;100893.63;1231903;24;20122;-91
2023/10/13 02:39:07;;;;;;;16.50;11.98;;;;;;;15.83;100.00;100889.00;1239996;23;20080;-91
2023/10/13 02:39:42;;;;;;;16.25;11.38;;;;;;;15.83;100.00;100889.00;1246557;23;20016;-91
2023/10/13 02:40:14;;;;;;;15.90;11.73;;;;;;;15.92;100.00;100892.91;1247155;23;20011;-91